Terminal Aerodrome Forecast
Issued by NWS Blacksburg, VA

Current Version | Previous Version | Text Only | Print | Product List | Glossary Off
Versions: 1 2 3 4 5 6 7 8 9 10 11 12 13 14 15 16 17 18 19 20 21 22 23

000
FTUS41 KRNK 311725 AAA
TAFBLF
TAF AMD
KBLF 311725Z 3117/0118 26005KT P6SM -RA BKN025 OVC040
     FM312200 27004KT 4SM -RA BR OVC022
     FM010300 30004KT 2SM -RA BR OVC009
     FM010700 32006KT 1SM -SN BR OVC003
     FM011400 01007KT 2SM -SHRASN OVC015=

USA.gov is the U.S. government's official web portal to all federal, state and local government web resources and services.